KLWD

Lamoni Municipal Airport

Lamoni, Iowa, USA
METAR KLWD 212353Z AUTO 05011KT 10SM CLR M04/M07 A3055 RMK AO2 SLP367 T10391067 11028 21067 53004
Observed Flight Rules
Feb-21 @ 23:53 UTC (5 hours ago) Visual Flight Rules
Wind Visibility Clouds
50° at 11 knots 10 miles
  • Clear skies
Temperatures Readings
Current -4°C / 25°F
Dewpoint -7°C / 19°F
Humidity 80%
Altimeter 30.55" Hg
Pressure 1036.7 hPa
Elevation 346
METAR KLWD 212353Z AUTO 05011KT 10SM CLR M04/M07 A3055 RMK AO2 SLP367 T10391067 11028 21067 53004
Observed Flight Rules
Feb-21 @ 23:53 UTC
(5 hours ago)
VFR
Wind Visibility
50° at 11 knots 10 miles
Clouds
  • Clear skies
Temperature Dewpoint
-4°C / 25°F -7°C / 19°F
Humidity Altimeter Pressure
80% 30.55" Hg 1036.7 hPa